sensor_id;sensor_type;location;lat;lon;timestamp;pressure;altitude;pressure_sealevel;temperature;humidity
32237;BME280;18726;44.732;10.550;2023-02-11T00:02:48;103274.72;;;1.07;100.00
32237;BME280;18726;44.732;10.550;2023-02-11T00:05:58;103272.72;;;2.00;100.00
32237;BME280;18726;44.732;10.550;2023-02-11T00:09:03;103261.66;;;2.57;100.00
32237;BME280;18726;44.732;10.550;2023-02-11T00:12:07;103269.75;;;1.72;100.00
32237;BME280;18726;44.732;10.550;2023-02-11T00:15:11;103283.97;;;1.29;100.00
32237;BME280;18726;44.732;10.550;2023-02-11T00:18:15;103272.50;;;1.65;100.00
32237;BME280;18726;44.732;10.550;2023-02-11T00:21:21;103274.03;;;1.37;100.00
32237;BME280;18726;44.732;10.550;2023-02-11T00:24:25;103281.28;;;1.11;100.00
32237;BME280;18726;44.732;10.550;2023-02-11T00:27:29;103280.19;;;0.87;100.00
32237;BME280;18726;44.732;10.550;2023-02-11T00:30:33;103275.78;;;0.75;100.00
32237;BME280;18726;44.732;10.550;2023-02-11T00:33:37;103279.75;;;0.65;100.00
32237;BME280;18726;44.732;10.550;2023-02-11T00:36:42;103279.13;;;0.95;100.00
32237;BME280;18726;44.732;10.550;2023-02-11T00:39:47;103285.16;;;1.15;100.00
32237;BME280;18726;44.732;10.550;2023-02-11T00:42:52;103282.41;;;1.22;100.00
32237;BME280;18726;44.732;10.550;2023-02-11T00:45:55;103274.66;;;1.57;100.00
32237;BME280;18726;44.732;10.550;2023-02-11T00:49:00;103270.44;;;1.67;100.00
32237;BME280;18726;44.732;10.550;2023-02-11T00:52:03;103270.41;;;1.86;100.00
32237;BME280;18726;44.732;10.550;2023-02-11T00:55:07;103268.19;;;1.64;100.00
32237;BME280;18726;44.732;10.550;2023-02-11T00:58:11;103268.53;;;1.50;100.00
32237;BME280;18726;44.732;10.550;2023-02-11T01:01:14;103265.56;;;1.58;100.00
32237;BME280;18726;44.732;10.550;2023-02-11T01:04:19;103273.59;;;0.90;100.00
32237;BME280;18726;44.732;10.550;2023-02-11T01:07:41;103279.22;;;0.50;100.00
32237;BME280;18726;44.732;10.550;2023-02-11T01:11:04;103269.75;;;0.16;100.00
32237;BME280;18726;44.732;10.550;2023-02-11T01:14:07;103267.94;;;0.04;100.00
32237;BME280;18726;44.732;10.550;2023-02-11T01:17:11;103271.50;;;-0.09;100.00
32237;BME280;18726;44.732;10.550;2023-02-11T01:20:19;103272.66;;;0.02;100.00
32237;BME280;18726;44.732;10.550;2023-02-11T01:23:24;103266.28;;;0.09;100.00
32237;BME280;18726;44.732;10.550;2023-02-11T01:26:28;103264.31;;;0.67;100.00
32237;BME280;18726;44.732;10.550;2023-02-11T01:29:31;103264.91;;;0.38;100.00
32237;BME280;18726;44.732;10.550;2023-02-11T01:32:35;103259.81;;;0.61;100.00
32237;BME280;18726;44.732;10.550;2023-02-11T01:35:39;103246.81;;;0.33;100.00
32237;BME280;18726;44.732;10.550;2023-02-11T01:38:43;103251.09;;;0.03;100.00
32237;BME280;18726;44.732;10.550;2023-02-11T01:41:48;103257.25;;;0.04;100.00
32237;BME280;18726;44.732;10.550;2023-02-11T01:44:53;103250.63;;;0.19;100.00
32237;BME280;18726;44.732;10.550;2023-02-11T01:47:57;103244.03;;;0.22;100.00
32237;BME280;18726;44.732;10.550;2023-02-11T01:51:16;103245.44;;;0.24;100.00
32237;BME280;18726;44.732;10.550;2023-02-11T01:54:24;103240.25;;;0.29;100.00
32237;BME280;18726;44.732;10.550;2023-02-11T01:57:51;103233.84;;;0.68;100.00
32237;BME280;18726;44.732;10.550;2023-02-11T02:00:56;103232.69;;;0.26;100.00
32237;BME280;18726;44.732;10.550;2023-02-11T02:04:02;103223.88;;;0.19;100.00
32237;BME280;18726;44.732;10.550;2023-02-11T02:07:13;103219.00;;;0.10;100.00
32237;BME280;18726;44.732;10.550;2023-02-11T02:10:22;103225.59;;;0.00;100.00
32237;BME280;18726;44.732;10.550;2023-02-11T02:13:30;103212.09;;;-0.05;100.00
32237;BME280;18726;44.732;10.550;2023-02-11T02:16:35;103211.09;;;-0.17;100.00
32237;BME280;18726;44.732;10.550;2023-02-11T02:20:08;103210.50;;;-0.19;100.00
32237;BME280;18726;44.732;10.550;2023-02-11T02:34:21;103199.22;;;-0.21;100.00
32237;BME280;18726;44.732;10.550;2023-02-11T02:37:35;103192.84;;;-0.20;100.00
32237;BME280;18726;44.732;10.550;2023-02-11T02:40:45;103188.63;;;0.60;100.00
32237;BME280;18726;44.732;10.550;2023-02-11T02:43:51;103194.09;;;0.16;100.00
32237;BME280;18726;44.732;10.550;2023-02-11T02:46:55;103196.78;;;0.16;100.00
32237;BME280;18726;44.732;10.550;2023-02-11T02:49:59;103188.13;;;0.77;100.00
32237;BME280;18726;44.732;10.550;2023-02-11T02:53:14;103174.47;;;0.85;100.00
32237;BME280;18726;44.732;10.550;2023-02-11T02:56:36;103172.84;;;1.02;100.00
32237;BME280;18726;44.732;10.550;2023-02-11T02:59:54;103168.81;;;1.84;100.00
32237;BME280;18726;44.732;10.550;2023-02-11T03:03:36;103172.50;;;1.72;100.00
32237;BME280;18726;44.732;10.550;2023-02-11T03:06:52;103163.31;;;2.51;100.00
32237;BME280;18726;44.732;10.550;2023-02-11T03:10:24;103162.13;;;3.28;100.00
32237;BME280;18726;44.732;10.550;2023-02-11T03:13:29;103156.91;;;2.10;100.00
32237;BME280;18726;44.732;10.550;2023-02-11T03:16:36;103163.28;;;2.27;100.00
32237;BME280;18726;44.732;10.550;2023-02-11T03:19:43;103164.84;;;2.58;100.00
32237;BME280;18726;44.732;10.550;2023-02-11T03:22:52;103165.91;;;2.16;100.00
32237;BME280;18726;44.732;10.550;2023-02-11T03:29:46;103149.31;;;1.77;100.00
32237;BME280;18726;44.732;10.550;2023-02-11T03:33:04;103160.63;;;1.79;100.00
32237;BME280;18726;44.732;10.550;2023-02-11T03:36:12;103154.13;;;1.39;100.00
32237;BME280;18726;44.732;10.550;2023-02-11T03:39:28;103157.69;;;1.51;100.00
32237;BME280;18726;44.732;10.550;2023-02-11T03:42:37;103148.03;;;1.31;100.00
32237;BME280;18726;44.732;10.550;2023-02-11T03:45:45;103150.97;;;0.87;100.00
32237;BME280;18726;44.732;10.550;2023-02-11T03:48:54;103151.34;;;0.16;100.00
32237;BME280;18726;44.732;10.550;2023-02-11T03:52:00;103141.16;;;0.31;100.00
32237;BME280;18726;44.732;10.550;2023-02-11T03:55:09;103147.03;;;0.15;100.00
32237;BME280;18726;44.732;10.550;2023-02-11T03:58:14;103143.91;;;-0.14;100.00
32237;BME280;18726;44.732;10.550;2023-02-11T04:01:18;103139.00;;;-0.17;100.00
32237;BME280;18726;44.732;10.550;2023-02-11T04:04:21;103149.97;;;-0.31;100.00
32237;BME280;18726;44.732;10.550;2023-02-11T04:07:25;103154.75;;;-0.53;100.00
32237;BME280;18726;44.732;10.550;2023-02-11T04:10:30;103153.78;;;-0.65;100.00
32237;BME280;18726;44.732;10.550;2023-02-11T04:13:33;103143.53;;;-0.62;100.00
32237;BME280;18726;44.732;10.550;2023-02-11T04:16:37;103150.31;;;-0.66;100.00
32237;BME280;18726;44.732;10.550;2023-02-11T04:19:40;103140.31;;;0.30;100.00
32237;BME280;18726;44.732;10.550;2023-02-11T04:22:44;103135.09;;;0.42;100.00
32237;BME280;18726;44.732;10.550;2023-02-11T04:25:49;103135.69;;;1.30;100.00
32237;BME280;18726;44.732;10.550;2023-02-11T04:28:53;103120.78;;;2.13;100.00
32237;BME280;18726;44.732;10.550;2023-02-11T04:31:56;103124.69;;;1.20;100.00
32237;BME280;18726;44.732;10.550;2023-02-11T04:35:00;103130.91;;;0.78;100.00
32237;BME280;18726;44.732;10.550;2023-02-11T04:38:04;103121.72;;;1.28;100.00
32237;BME280;18726;44.732;10.550;2023-02-11T04:41:08;103127.78;;;0.81;100.00
32237;BME280;18726;44.732;10.550;2023-02-11T04:44:12;103123.72;;;1.33;100.00
32237;BME280;18726;44.732;10.550;2023-02-11T04:47:17;103116.94;;;1.79;100.00
32237;BME280;18726;44.732;10.550;2023-02-11T04:50:20;103122.41;;;1.72;100.00
32237;BME280;18726;44.732;10.550;2023-02-11T04:53:24;103126.03;;;1.29;100.00
32237;BME280;18726;44.732;10.550;2023-02-11T04:56:28;103132.22;;;0.68;100.00
32237;BME280;18726;44.732;10.550;2023-02-11T04:59:32;103124.19;;;0.87;100.00
32237;BME280;18726;44.732;10.550;2023-02-11T05:02:35;103126.00;;;1.66;100.00
32237;BME280;18726;44.732;10.550;2023-02-11T05:05:41;103117.63;;;1.74;100.00
32237;BME280;18726;44.732;10.550;2023-02-11T05:08:45;103114.38;;;1.72;100.00
32237;BME280;18726;44.732;10.550;2023-02-11T05:11:49;103126.59;;;1.68;100.00
32237;BME280;18726;44.732;10.550;2023-02-11T05:14:53;103128.44;;;1.67;100.00
32237;BME280;18726;44.732;10.550;2023-02-11T05:17:56;103130.69;;;1.82;100.00
32237;BME280;18726;44.732;10.550;2023-02-11T05:21:05;103135.28;;;0.90;100.00
32237;BME280;18726;44.732;10.550;2023-02-11T05:24:09;103143.31;;;0.16;100.00
32237;BME280;18726;44.732;10.550;2023-02-11T05:27:13;103144.03;;;-0.33;100.00
32237;BME280;18726;44.732;10.550;2023-02-11T05:30:17;103143.72;;;-0.63;100.00
32237;BME280;18726;44.732;10.550;2023-02-11T05:33:21;103144.59;;;-0.83;100.00
32237;BME280;18726;44.732;10.550;2023-02-11T05:36:25;103140.34;;;-0.97;100.00
32237;BME280;18726;44.732;10.550;2023-02-11T05:39:28;103137.69;;;-1.10;100.00
32237;BME280;18726;44.732;10.550;2023-02-11T05:42:32;103127.41;;;-1.13;100.00
32237;BME280;18726;44.732;10.550;2023-02-11T05:45:35;103133.56;;;-1.06;100.00
32237;BME280;18726;44.732;10.550;2023-02-11T05:48:39;103120.47;;;-1.21;100.00
32237;BME280;18726;44.732;10.550;2023-02-11T05:51:43;103120.88;;;-1.24;100.00
32237;BME280;18726;44.732;10.550;2023-02-11T05:54:46;103126.22;;;-1.17;100.00
32237;BME280;18726;44.732;10.550;2023-02-11T05:57:50;103124.53;;;-1.05;100.00
32237;BME280;18726;44.732;10.550;2023-02-11T06:00:54;103125.38;;;-1.11;100.00
32237;BME280;18726;44.732;10.550;2023-02-11T06:03:57;103123.50;;;-1.04;100.00
32237;BME280;18726;44.732;10.550;2023-02-11T06:07:01;103120.44;;;-1.01;100.00
32237;BME280;18726;44.732;10.550;2023-02-11T06:10:06;103114.25;;;-0.88;100.00
32237;BME280;18726;44.732;10.550;2023-02-11T06:13:09;103118.31;;;-0.86;100.00
32237;BME280;18726;44.732;10.550;2023-02-11T06:16:13;103115.00;;;-0.75;100.00
32237;BME280;18726;44.732;10.550;2023-02-11T06:19:17;103120.41;;;-0.88;100.00
32237;BME280;18726;44.732;10.550;2023-02-11T06:22:21;103116.47;;;-0.85;100.00
32237;BME280;18726;44.732;10.550;2023-02-11T06:25:25;103114.41;;;-0.83;100.00
32237;BME280;18726;44.732;10.550;2023-02-11T06:28:28;103116.28;;;-0.84;100.00
32237;BME280;18726;44.732;10.550;2023-02-11T06:31:36;103106.41;;;-0.77;100.00
32237;BME280;18726;44.732;10.550;2023-02-11T06:34:41;103114.81;;;-0.73;100.00
32237;BME280;18726;44.732;10.550;2023-02-11T06:37:44;103121.56;;;-0.64;97.21
32237;BME280;18726;44.732;10.550;2023-02-11T06:40:49;103118.97;;;-0.39;100.00
32237;BME280;18726;44.732;10.550;2023-02-11T06:43:53;103118.44;;;-0.16;98.45
32237;BME280;18726;44.732;10.550;2023-02-11T06:46:57;103102.63;;;0.14;94.33
32237;BME280;18726;44.732;10.550;2023-02-11T06:50:01;103108.38;;;0.42;92.43
32237;BME280;18726;44.732;10.550;2023-02-11T06:53:05;103111.91;;;0.86;96.32
32237;BME280;18726;44.732;10.550;2023-02-11T06:56:11;103112.53;;;1.54;94.82
32237;BME280;18726;44.732;10.550;2023-02-11T06:59:17;103110.00;;;2.78;83.41
32237;BME280;18726;44.732;10.550;2023-02-11T07:02:20;103108.66;;;4.46;82.77
32237;BME280;18726;44.732;10.550;2023-02-11T07:05:24;103122.72;;;5.95;74.27
32237;BME280;18726;44.732;10.550;2023-02-11T07:08:28;103122.22;;;7.77;78.59
32237;BME280;18726;44.732;10.550;2023-02-11T07:11:33;103128.03;;;9.31;72.98
32237;BME280;18726;44.732;10.550;2023-02-11T07:14:36;103135.94;;;10.84;58.46
32237;BME280;18726;44.732;10.550;2023-02-11T07:17:40;103135.59;;;11.81;53.81
32237;BME280;18726;44.732;10.550;2023-02-11T07:20:44;103136.25;;;11.06;45.97
32237;BME280;18726;44.732;10.550;2023-02-11T07:23:49;103129.88;;;11.16;47.01
32237;BME280;18726;44.732;10.550;2023-02-11T07:26:53;103133.78;;;12.28;46.01
32237;BME280;18726;44.732;10.550;2023-02-11T07:29:56;103128.47;;;13.10;41.93
32237;BME280;18726;44.732;10.550;2023-02-11T07:33:00;103134.81;;;12.78;40.86
32237;BME280;18726;44.732;10.550;2023-02-11T07:36:04;103145.34;;;13.89;44.08
32237;BME280;18726;44.732;10.550;2023-02-11T07:39:09;103150.50;;;14.71;38.05
32237;BME280;18726;44.732;10.550;2023-02-11T07:42:12;103145.81;;;14.41;37.76
32237;BME280;18726;44.732;10.550;2023-02-11T07:45:16;103150.94;;;14.73;37.24
32237;BME280;18726;44.732;10.550;2023-02-11T07:48:20;103147.16;;;14.83;35.06
32237;BME280;18726;44.732;10.550;2023-02-11T07:51:27;103147.63;;;14.32;36.96
32237;BME280;18726;44.732;10.550;2023-02-11T07:54:31;103147.75;;;15.11;37.96
32237;BME280;18726;44.732;10.550;2023-02-11T07:57:35;103149.31;;;16.64;35.66
32237;BME280;18726;44.732;10.550;2023-02-11T08:00:38;103153.53;;;18.74;32.76
32237;BME280;18726;44.732;10.550;2023-02-11T08:03:42;103157.41;;;20.39;33.70
32237;BME280;18726;44.732;10.550;2023-02-11T08:06:46;103159.59;;;20.77;29.81
32237;BME280;18726;44.732;10.550;2023-02-11T08:09:50;103156.91;;;20.65;30.82
32237;BME280;18726;44.732;10.550;2023-02-11T08:12:53;103159.13;;;20.59;29.07
32237;BME280;18726;44.732;10.550;2023-02-11T08:15:57;103168.78;;;21.63;29.82
32237;BME280;18726;44.732;10.550;2023-02-11T08:19:04;103163.56;;;21.42;27.55
32237;BME280;18726;44.732;10.550;2023-02-11T08:22:08;103171.03;;;21.58;28.41
32237;BME280;18726;44.732;10.550;2023-02-11T08:25:13;103170.63;;;22.52;28.05
32237;BME280;18726;44.732;10.550;2023-02-11T08:28:16;103172.41;;;22.64;26.23
32237;BME280;18726;44.732;10.550;2023-02-11T08:31:22;103180.97;;;24.87;26.88
32237;BME280;18726;44.732;10.550;2023-02-11T08:34:26;103183.50;;;26.52;23.56
32237;BME280;18726;44.732;10.550;2023-02-11T08:37:31;103179.41;;;27.74;21.82
32237;BME280;18726;44.732;10.550;2023-02-11T08:40:35;103184.28;;;28.43;21.03
32237;BME280;18726;44.732;10.550;2023-02-11T08:43:38;103174.91;;;29.87;21.27
32237;BME280;18726;44.732;10.550;2023-02-11T08:46:45;103181.06;;;29.75;20.65
32237;BME280;18726;44.732;10.550;2023-02-11T08:49:49;103176.88;;;30.98;22.12
32237;BME280;18726;44.732;10.550;2023-02-11T08:52:53;103173.63;;;30.99;18.48
32237;BME280;18726;44.732;10.550;2023-02-11T08:55:57;103172.22;;;31.34;21.04
32237;BME280;18726;44.732;10.550;2023-02-11T08:59:01;103173.44;;;31.10;19.64
32237;BME280;18726;44.732;10.550;2023-02-11T09:02:05;103162.53;;;28.65;21.22
32237;BME280;18726;44.732;10.550;2023-02-11T09:05:10;103163.56;;;26.85;22.24
32237;BME280;18726;44.732;10.550;2023-02-11T09:08:15;103165.56;;;27.17;20.50
32237;BME280;18726;44.732;10.550;2023-02-11T09:11:25;103171.63;;;28.83;22.25
32237;BME280;18726;44.732;10.550;2023-02-11T09:14:29;103168.41;;;27.10;20.27
32237;BME280;18726;44.732;10.550;2023-02-11T09:17:33;103160.72;;;25.35;23.85
32237;BME280;18726;44.732;10.550;2023-02-11T09:20:37;103157.09;;;26.14;22.96
32237;BME280;18726;44.732;10.550;2023-02-11T09:23:41;103149.22;;;26.94;21.53
32237;BME280;18726;44.732;10.550;2023-02-11T09:26:47;103154.81;;;27.26;22.90
32237;BME280;18726;44.732;10.550;2023-02-11T09:29:52;103151.53;;;27.49;19.84
32237;BME280;18726;44.732;10.550;2023-02-11T09:32:55;103149.66;;;27.10;21.94
32237;BME280;18726;44.732;10.550;2023-02-11T09:36:00;103146.00;;;27.35;19.47
32237;BME280;18726;44.732;10.550;2023-02-11T09:39:08;103144.75;;;27.53;21.47
32237;BME280;18726;44.732;10.550;2023-02-11T09:45:36;103151.00;;;29.79;19.59
32237;BME280;18726;44.732;10.550;2023-02-11T09:48:43;103154.00;;;30.76;21.13
32237;BME280;18726;44.732;10.550;2023-02-11T09:51:56;103147.34;;;31.13;20.76
32237;BME280;18726;44.732;10.550;2023-02-11T09:55:05;103143.63;;;29.62;21.65
32237;BME280;18726;44.732;10.550;2023-02-11T09:58:21;103145.31;;;29.86;19.71
32237;BME280;18726;44.732;10.550;2023-02-11T10:08:15;103139.53;;;30.77;20.95
32237;BME280;18726;44.732;10.550;2023-02-11T10:11:35;103143.16;;;32.16;20.11
32237;BME280;18726;44.732;10.550;2023-02-11T10:21:44;103132.81;;;31.38;19.27
32237;BME280;18726;44.732;10.550;2023-02-11T10:24:54;103125.50;;;29.70;18.69
32237;BME280;18726;44.732;10.550;2023-02-11T10:28:10;103132.25;;;32.02;18.86
32237;BME280;18726;44.732;10.550;2023-02-11T10:31:19;103133.13;;;33.96;17.94
32237;BME280;18726;44.732;10.550;2023-02-11T10:34:25;103115.16;;;33.07;18.61
32237;BME280;18726;44.732;10.550;2023-02-11T10:37:29;103108.63;;;32.16;18.23
32237;BME280;18726;44.732;10.550;2023-02-11T10:40:33;103109.50;;;30.51;18.85
32237;BME280;18726;44.732;10.550;2023-02-11T10:43:37;103103.47;;;29.38;19.85
32237;BME280;18726;44.732;10.550;2023-02-11T10:46:41;103101.53;;;27.90;20.19
32237;BME280;18726;44.732;10.550;2023-02-11T10:49:46;103095.88;;;26.74;21.97
32237;BME280;18726;44.732;10.550;2023-02-11T10:52:50;103087.44;;;26.17;24.31
32237;BME280;18726;44.732;10.550;2023-02-11T10:55:55;103086.81;;;25.48;22.26
32237;BME280;18726;44.732;10.550;2023-02-11T11:02:28;103075.81;;;24.08;25.29
32237;BME280;18726;44.732;10.550;2023-02-11T11:05:36;103077.00;;;22.87;23.66
32237;BME280;18726;44.732;10.550;2023-02-11T11:08:49;103071.28;;;22.54;28.83
32237;BME280;18726;44.732;10.550;2023-02-11T11:11:53;103072.59;;;22.60;29.02
32237;BME280;18726;44.732;10.550;2023-02-11T11:18:15;103061.69;;;21.83;26.47
32237;BME280;18726;44.732;10.550;2023-02-11T11:21:25;103048.88;;;21.75;29.28
32237;BME280;18726;44.732;10.550;2023-02-11T11:24:42;103055.88;;;21.30;28.24
32237;BME280;18726;44.732;10.550;2023-02-11T11:27:52;103051.38;;;20.90;27.56
32237;BME280;18726;44.732;10.550;2023-02-11T11:30:58;103046.44;;;20.49;29.51
32237;BME280;18726;44.732;10.550;2023-02-11T11:34:36;103045.41;;;20.26;29.16
32237;BME280;18726;44.732;10.550;2023-02-11T11:37:40;103042.94;;;19.77;31.23
32237;BME280;18726;44.732;10.550;2023-02-11T11:40:44;103028.53;;;19.43;30.70
32237;BME280;18726;44.732;10.550;2023-02-11T11:44:22;103024.16;;;19.14;30.38
32237;BME280;18726;44.732;10.550;2023-02-11T11:47:43;103033.03;;;18.83;29.77
32237;BME280;18726;44.732;10.550;2023-02-11T11:50:57;103021.22;;;18.71;31.07
32237;BME280;18726;44.732;10.550;2023-02-11T11:54:06;103020.53;;;18.62;31.93
32237;BME280;18726;44.732;10.550;2023-02-11T11:57:15;103006.63;;;18.46;32.76
32237;BME280;18726;44.732;10.550;2023-02-11T12:04:09;103009.81;;;18.11;31.88
32237;BME280;18726;44.732;10.550;2023-02-11T12:07:50;102997.13;;;17.86;31.89
32237;BME280;18726;44.732;10.550;2023-02-11T12:27:42;102994.97;;;17.59;34.16
32237;BME280;18726;44.732;10.550;2023-02-11T12:34:52;102973.06;;;17.83;35.41
32237;BME280;18726;44.732;10.550;2023-02-11T12:38:14;102966.75;;;17.49;33.68
32237;BME280;18726;44.732;10.550;2023-02-11T12:42:01;102950.56;;;17.15;38.52
32237;BME280;18726;44.732;10.550;2023-02-11T12:55:24;102925.72;;;16.91;32.40
32237;BME280;18726;44.732;10.550;2023-02-11T12:58:33;102913.19;;;17.02;38.29
32237;BME280;18726;44.732;10.550;2023-02-11T13:01:40;102903.34;;;17.01;34.47
32237;BME280;18726;44.732;10.550;2023-02-11T13:04:50;102908.28;;;16.66;37.93
32237;BME280;18726;44.732;10.550;2023-02-11T13:11:24;102908.97;;;16.54;35.38
32237;BME280;18726;44.732;10.550;2023-02-11T13:14:35;102908.31;;;16.57;42.03
32237;BME280;18726;44.732;10.550;2023-02-11T13:17:53;102898.19;;;16.19;32.17
32237;BME280;18726;44.732;10.550;2023-02-11T13:25:00;102894.09;;;15.96;37.96
32237;BME280;18726;44.732;10.550;2023-02-11T13:28:31;102877.50;;;16.31;42.69
32237;BME280;18726;44.732;10.550;2023-02-11T13:31:38;102877.38;;;16.18;39.32
32237;BME280;18726;44.732;10.550;2023-02-11T13:37:46;102876.84;;;16.34;44.03
32237;BME280;18726;44.732;10.550;2023-02-11T13:47:25;102877.19;;;16.24;42.00
32237;BME280;18726;44.732;10.550;2023-02-11T13:50:38;102872.78;;;16.10;40.45
32237;BME280;18726;44.732;10.550;2023-02-11T13:53:53;102878.03;;;15.86;41.48
32237;BME280;18726;44.732;10.550;2023-02-11T13:57:33;102870.38;;;15.53;42.36
32237;BME280;18726;44.732;10.550;2023-02-11T14:04:05;102870.13;;;14.95;44.22
32237;BME280;18726;44.732;10.550;2023-02-11T14:18:37;102868.69;;;14.71;52.77
32237;BME280;18726;44.732;10.550;2023-02-11T14:21:42;102875.59;;;14.77;49.78
32237;BME280;18726;44.732;10.550;2023-02-11T14:24:50;102859.50;;;14.84;48.21
32237;BME280;18726;44.732;10.550;2023-02-11T14:28:27;102860.78;;;14.78;44.04
32237;BME280;18726;44.732;10.550;2023-02-11T14:31:29;102859.69;;;14.71;46.76
32237;BME280;18726;44.732;10.550;2023-02-11T14:38:21;102834.97;;;14.28;43.54
32237;BME280;18726;44.732;10.550;2023-02-11T14:41:31;102839.28;;;14.11;45.86
32237;BME280;18726;44.732;10.550;2023-02-11T14:44:37;102840.47;;;13.88;49.98
32237;BME280;18726;44.732;10.550;2023-02-11T14:47:45;102831.63;;;13.91;54.36
32237;BME280;18726;44.732;10.550;2023-02-11T14:51:02;102828.28;;;13.85;52.08
32237;BME280;18726;44.732;10.550;2023-02-11T14:54:17;102822.28;;;13.75;49.16
32237;BME280;18726;44.732;10.550;2023-02-11T14:57:22;102820.66;;;13.74;52.99
32237;BME280;18726;44.732;10.550;2023-02-11T15:00:25;102827.47;;;13.85;57.32
32237;BME280;18726;44.732;10.550;2023-02-11T15:03:40;102821.66;;;13.78;50.40
32237;BME280;18726;44.732;10.550;2023-02-11T15:06:46;102815.06;;;13.79;56.79
32237;BME280;18726;44.732;10.550;2023-02-11T15:09:53;102816.53;;;13.85;58.50
32237;BME280;18726;44.732;10.550;2023-02-11T15:12:58;102822.13;;;13.80;54.45
32237;BME280;18726;44.732;10.550;2023-02-11T15:16:07;102815.19;;;13.74;58.62
32237;BME280;18726;44.732;10.550;2023-02-11T15:19:39;102820.59;;;13.57;58.73
32237;BME280;18726;44.732;10.550;2023-02-11T15:22:48;102806.63;;;13.27;49.42
32237;BME280;18726;44.732;10.550;2023-02-11T15:25:54;102816.38;;;13.20;59.45
32237;BME280;18726;44.732;10.550;2023-02-11T15:28:59;102812.84;;;13.19;64.20
32237;BME280;18726;44.732;10.550;2023-02-11T15:32:12;102807.47;;;13.14;62.79
32237;BME280;18726;44.732;10.550;2023-02-11T15:35:17;102815.41;;;13.02;55.20
32237;BME280;18726;44.732;10.550;2023-02-11T15:38:21;102811.06;;;13.01;65.14
32237;BME280;18726;44.732;10.550;2023-02-11T15:41:37;102814.16;;;13.08;60.49
32237;BME280;18726;44.732;10.550;2023-02-11T15:44:40;102813.44;;;12.94;60.87
32237;BME280;18726;44.732;10.550;2023-02-11T15:47:49;102806.59;;;12.82;61.90
32237;BME280;18726;44.732;10.550;2023-02-11T15:50:56;102807.84;;;12.76;66.10
32237;BME280;18726;44.732;10.550;2023-02-11T15:54:06;102801.22;;;12.69;71.13
32237;BME280;18726;44.732;10.550;2023-02-11T15:57:11;102796.19;;;12.62;71.45
32237;BME280;18726;44.732;10.550;2023-02-11T16:00:20;102793.44;;;12.40;69.25
32237;BME280;18726;44.732;10.550;2023-02-11T16:03:27;102800.09;;;12.34;72.51
32237;BME280;18726;44.732;10.550;2023-02-11T16:06:40;102802.63;;;12.30;73.77
32237;BME280;18726;44.732;10.550;2023-02-11T16:09:44;102798.09;;;12.26;72.16
32237;BME280;18726;44.732;10.550;2023-02-11T16:16:18;102799.22;;;11.97;72.18
32237;BME280;18726;44.732;10.550;2023-02-11T16:19:25;102800.94;;;11.93;78.25
32237;BME280;18726;44.732;10.550;2023-02-11T16:22:29;102796.53;;;11.83;74.36
32237;BME280;18726;44.732;10.550;2023-02-11T16:25:40;102801.94;;;11.70;73.63
32237;BME280;18726;44.732;10.550;2023-02-11T16:28:45;102795.97;;;11.54;75.63
32237;BME280;18726;44.732;10.550;2023-02-11T16:31:51;102804.72;;;11.37;77.49
32237;BME280;18726;44.732;10.550;2023-02-11T16:34:57;102796.53;;;11.37;81.30
32237;BME280;18726;44.732;10.550;2023-02-11T16:38:02;102795.81;;;11.32;81.99
32237;BME280;18726;44.732;10.550;2023-02-11T16:41:05;102794.19;;;11.17;67.91
32237;BME280;18726;44.732;10.550;2023-02-11T16:44:09;102802.50;;;10.56;63.02
32237;BME280;18726;44.732;10.550;2023-02-11T16:47:23;102797.72;;;10.05;63.00
32237;BME280;18726;44.732;10.550;2023-02-11T16:50:26;102800.06;;;10.11;87.87
32237;BME280;18726;44.732;10.550;2023-02-11T16:53:30;102793.47;;;10.18;75.34
32237;BME280;18726;44.732;10.550;2023-02-11T16:56:34;102799.16;;;9.97;71.50
32237;BME280;18726;44.732;10.550;2023-02-11T16:59:38;102801.38;;;9.95;78.09
32237;BME280;18726;44.732;10.550;2023-02-11T17:02:42;102802.63;;;10.27;92.15
32237;BME280;18726;44.732;10.550;2023-02-11T17:05:46;102795.97;;;10.38;90.55
32237;BME280;18726;44.732;10.550;2023-02-11T17:08:50;102798.16;;;10.36;85.15
32237;BME280;18726;44.732;10.550;2023-02-11T17:11:53;102803.53;;;10.17;80.88
32237;BME280;18726;44.732;10.550;2023-02-11T17:14:57;102796.63;;;9.58;71.22
32237;BME280;18726;44.732;10.550;2023-02-11T17:18:01;102794.69;;;9.06;73.82
32237;BME280;18726;44.732;10.550;2023-02-11T17:21:06;102804.72;;;8.66;73.12
32237;BME280;18726;44.732;10.550;2023-02-11T17:24:10;102805.16;;;8.39;73.19
32237;BME280;18726;44.732;10.550;2023-02-11T17:27:14;102807.38;;;8.22;76.36
32237;BME280;18726;44.732;10.550;2023-02-11T17:30:18;102807.16;;;8.08;70.22
32237;BME280;18726;44.732;10.550;2023-02-11T17:33:21;102802.34;;;8.00;74.67
32237;BME280;18726;44.732;10.550;2023-02-11T17:36:25;102809.66;;;8.00;73.66
32237;BME280;18726;44.732;10.550;2023-02-11T17:39:29;102812.72;;;7.73;73.25
32237;BME280;18726;44.732;10.550;2023-02-11T17:42:33;102807.09;;;7.24;76.53
32237;BME280;18726;44.732;10.550;2023-02-11T17:45:41;102795.78;;;7.17;84.41
32237;BME280;18726;44.732;10.550;2023-02-11T17:48:46;102811.44;;;7.20;82.04
32237;BME280;18726;44.732;10.550;2023-02-11T17:51:50;102810.63;;;7.34;82.97
32237;BME280;18726;44.732;10.550;2023-02-11T17:54:54;102807.91;;;7.29;82.02
32237;BME280;18726;44.732;10.550;2023-02-11T17:57:58;102809.28;;;7.11;81.44
32237;BME280;18726;44.732;10.550;2023-02-11T18:01:02;102821.66;;;6.72;77.85